Time;durP1;ratioP1;P1;durP2;ratioP2;P2;SDS_P1;SDS_P2;PMS_P1;PMS_P2;Temp;Humidity;BMP_temperature;BMP_pressure;BME280_temperature;BME280_humidity;BME280_pressure;Samples;Min_cycle;Max_cycle;Signal;HPM_P1;HPM_P2
2023/05/20 00:00:27;;;;;;;19.80;6.17;;;9.70;99.90;;;;;;5070328;28;20071;-70
2023/05/20 00:02:53;;;;;;;12.57;5.67;;;9.70;99.90;;;;;;5087238;28;20062;-70
2023/05/20 00:05:18;;;;;;;14.33;5.47;;;9.70;99.90;;;;;;5086245;28;20040;-70
2023/05/20 00:07:44;;;;;;;16.90;5.93;;;9.80;99.90;;;;;;5070135;28;20085;-70
2023/05/20 00:10:10;;;;;;;16.37;5.70;;;9.80;99.90;;;;;;5087005;28;20032;-70
2023/05/20 00:12:38;;;;;;;15.17;5.57;;;9.70;99.90;;;;;;5086744;28;20036;-70
2023/05/20 00:15:04;;;;;;;16.17;5.63;;;9.80;99.90;;;;;;5088013;28;20040;-70
2023/05/20 00:17:30;;;;;;;13.85;6.00;;;9.80;99.90;;;;;;5073913;28;20044;-70
2023/05/20 00:19:55;;;;;;;16.47;5.47;;;9.80;99.90;;;;;;5089856;28;20048;-70
2023/05/20 00:22:21;;;;;;;17.73;6.20;;;9.80;99.90;;;;;;5088573;28;20492;-70
2023/05/20 00:24:47;;;;;;;12.63;5.43;;;9.80;99.90;;;;;;5073901;28;20541;-70
2023/05/20 00:27:13;;;;;;;15.20;5.80;;;9.80;99.90;;;;;;5073037;28;20278;-70
2023/05/20 00:29:39;;;;;;;13.63;5.93;;;9.90;99.90;;;;;;5091080;28;20509;-70
2023/05/20 00:32:05;;;;;;;13.67;5.50;;;9.90;99.90;;;;;;5091716;28;20093;-70
2023/05/20 00:34:30;;;;;;;12.65;5.80;;;9.90;99.90;;;;;;5076984;28;20080;-70
2023/05/20 00:36:56;;;;;;;13.03;5.13;;;9.90;99.90;;;;;;5093579;28;20043;-70
2023/05/20 00:39:22;;;;;;;18.47;5.50;;;9.90;99.90;;;;;;5076739;28;20063;-70
2023/05/20 00:41:47;;;;;;;20.20;6.60;;;9.80;99.90;;;;;;5076436;28;20091;-70
2023/05/20 00:44:13;;;;;;;20.40;5.80;;;9.80;99.90;;;;;;5076611;28;20043;-71
2023/05/20 00:46:39;;;;;;;11.97;5.17;;;9.80;99.90;;;;;;5093510;28;20407;-71
2023/05/20 00:49:05;;;;;;;11.43;4.87;;;9.80;99.90;;;;;;5073583;28;20038;-71
2023/05/20 00:51:32;;;;;;;13.00;5.57;;;9.80;99.90;;;;;;5073801;28;20109;-71
2023/05/20 00:53:58;;;;;;;14.75;6.25;;;9.70;99.90;;;;;;5093326;28;20043;-71
2023/05/20 00:56:24;;;;;;;16.43;5.83;;;9.80;99.90;;;;;;5093412;28;20050;-71
2023/05/20 00:58:51;;;;;;;13.15;5.75;;;9.70;99.90;;;;;;5092760;28;20045;-71
2023/05/20 01:01:16;;;;;;;17.23;6.00;;;9.70;99.90;;;;;;5075462;28;20036;-71
2023/05/20 01:03:42;;;;;;;19.40;6.10;;;9.70;99.90;;;;;;5092888;28;20122;-71
2023/05/20 01:06:08;;;;;;;15.83;5.80;;;9.70;99.90;;;;;;5093566;28;20040;-71
2023/05/20 01:08:34;;;;;;;17.53;5.90;;;9.70;99.90;;;;;;5075964;28;20088;-71
2023/05/20 01:11:12;;;;;;;15.60;6.60;;;9.60;99.90;;;;;;5091821;28;20040;-70
2023/05/20 01:13:54;;;;;;;22.35;6.03;;;9.60;99.90;;;;;;5085076;28;20047;-70
2023/05/20 01:16:23;;;;;;;19.25;6.78;;;9.60;99.90;;;;;;5076168;28;20035;-70
2023/05/20 01:18:54;;;;;;;13.25;5.95;;;9.60;99.90;;;;;;5069182;28;20038;-70
2023/05/20 01:21:22;;;;;;;20.90;6.90;;;9.50;99.90;;;;;;5092462;28;20071;-70
2023/05/20 01:23:48;;;;;;;13.35;5.28;;;9.50;99.90;;;;;;5098509;28;20134;-70
2023/05/20 01:26:14;;;;;;;17.30;6.23;;;9.50;99.90;;;;;;5091127;28;20127;-70
2023/05/20 01:28:42;;;;;;;13.47;6.00;;;9.50;99.90;;;;;;5092851;28;20076;-70
2023/05/20 01:31:31;;;;;;;14.23;5.82;;;9.50;99.90;;;;;;5085743;28;20477;-70
2023/05/20 01:33:58;;;;;;;11.88;5.55;;;9.50;99.90;;;;;;5075227;28;20047;-70
2023/05/20 01:36:25;;;;;;;12.07;5.43;;;9.40;99.90;;;;;;5075466;28;20046;-70
2023/05/20 01:38:53;;;;;;;14.63;5.97;;;9.40;99.90;;;;;;5092520;28;20032;-70
2023/05/20 01:41:20;;;;;;;18.63;6.57;;;9.30;99.90;;;;;;5077933;27;20032;-70
2023/05/20 01:43:46;;;;;;;15.60;6.15;;;9.30;99.90;;;;;;5083811;28;20062;-70
2023/05/20 01:46:12;;;;;;;21.10;6.27;;;9.30;99.90;;;;;;5075808;28;20048;-70
2023/05/20 01:48:38;;;;;;;11.07;5.67;;;9.30;99.90;;;;;;5092022;28;20046;-70
2023/05/20 01:51:03;;;;;;;14.83;6.30;;;9.30;99.90;;;;;;5091935;28;20480;-70
2023/05/20 01:53:29;;;;;;;14.60;6.73;;;9.30;99.90;;;;;;5091955;28;20042;-70
2023/05/20 01:55:55;;;;;;;17.70;6.20;;;9.30;99.90;;;;;;5092000;28;20040;-70
2023/05/20 01:58:20;;;;;;;11.27;5.67;;;9.30;99.90;;;;;;5091919;28;20100;-70
2023/05/20 02:00:46;;;;;;;13.93;6.70;;;9.30;99.90;;;;;;5091865;28;20119;-70
2023/05/20 02:03:12;;;;;;;15.93;6.13;;;9.30;99.90;;;;;;5074667;28;20446;-70
2023/05/20 02:05:37;;;;;;;19.63;6.53;;;9.30;99.90;;;;;;5074269;28;20478;-70
2023/05/20 02:08:03;;;;;;;11.50;6.20;;;9.30;99.90;;;;;;5074941;28;20083;-71
2023/05/20 02:10:29;;;;;;;15.70;6.80;;;9.30;99.90;;;;;;5074677;28;20040;-71
2023/05/20 02:12:54;;;;;;;15.93;5.97;;;9.30;99.90;;;;;;5089808;28;20602;-71
2023/05/20 02:15:20;;;;;;;15.77;6.50;;;9.30;99.90;;;;;;5092050;28;20038;-71
2023/05/20 02:17:46;;;;;;;15.83;6.57;;;9.30;99.90;;;;;;5091540;28;20096;-71
2023/05/20 02:20:12;;;;;;;15.10;6.70;;;9.30;99.90;;;;;;5074929;28;20407;-71
2023/05/20 02:22:38;;;;;;;13.15;6.65;;;9.20;99.90;;;;;;5099988;28;20043;-71
2023/05/20 02:25:04;;;;;;;16.73;7.13;;;9.30;99.90;;;;;;5074565;28;20043;-71
2023/05/20 02:27:30;;;;;;;15.73;6.78;;;9.30;99.90;;;;;;5071963;28;20096;-71
2023/05/20 02:29:56;;;;;;;16.80;6.30;;;9.20;99.90;;;;;;5074620;28;20063;-71
2023/05/20 02:32:26;;;;;;;11.15;6.50;;;9.30;99.90;;;;;;5090995;28;20058;-71
2023/05/20 02:34:55;;;;;;;12.40;5.95;;;9.20;99.90;;;;;;5091531;28;20132;-71
2023/05/20 02:37:21;;;;;;;14.25;6.55;;;9.20;99.90;;;;;;5090695;28;20589;-71
2023/05/20 02:39:47;;;;;;;14.70;6.03;;;9.10;99.90;;;;;;5091116;28;20043;-71
2023/05/20 02:42:13;;;;;;;17.07;6.30;;;9.10;99.90;;;;;;5091037;28;20514;-71
2023/05/20 02:44:38;;;;;;;16.00;6.43;;;9.00;99.90;;;;;;5091255;28;20580;-71
2023/05/20 02:47:04;;;;;;;14.70;6.60;;;9.00;99.90;;;;;;5089847;28;20039;-71
2023/05/20 02:49:30;;;;;;;13.10;6.07;;;9.00;99.90;;;;;;5074518;28;20066;-71
2023/05/20 02:51:55;;;;;;;12.90;6.20;;;9.00;99.90;;;;;;5084134;28;20097;-70
2023/05/20 02:54:21;;;;;;;11.73;6.07;;;9.00;99.90;;;;;;5091597;28;20035;-70
2023/05/20 02:56:47;;;;;;;21.10;6.70;;;8.90;99.90;;;;;;5090075;28;20507;-70
2023/05/20 02:59:12;;;;;;;16.03;6.90;;;9.00;99.90;;;;;;5074554;28;20118;-70
2023/05/20 03:01:39;;;;;;;12.57;6.60;;;8.90;99.90;;;;;;5073880;28;20035;-70
2023/05/20 03:04:05;;;;;;;16.38;6.70;;;8.90;99.90;;;;;;5091163;28;20523;-70
2023/05/20 03:06:30;;;;;;;16.25;6.85;;;8.90;99.90;;;;;;5090524;28;20082;-70
2023/05/20 03:08:57;;;;;;;11.63;6.83;;;8.80;99.90;;;;;;5090876;28;20078;-70
2023/05/20 03:11:23;;;;;;;12.25;6.43;;;8.80;99.90;;;;;;5089312;28;20052;-70
2023/05/20 03:13:48;;;;;;;13.80;5.57;;;8.80;99.90;;;;;;5090786;28;20043;-70
2023/05/20 03:16:15;;;;;;;14.77;7.23;;;8.80;99.90;;;;;;5090707;28;20380;-70
2023/05/20 03:18:41;;;;;;;11.60;6.15;;;8.80;99.90;;;;;;5073671;28;20035;-70
2023/05/20 03:21:07;;;;;;;16.73;5.97;;;8.90;99.90;;;;;;5090336;28;20051;-70
2023/05/20 03:23:33;;;;;;;11.40;6.28;;;8.80;99.90;;;;;;5098775;28;20040;-70
2023/05/20 03:25:59;;;;;;;14.80;6.18;;;8.80;99.90;;;;;;5090653;28;20031;-70
2023/05/20 03:28:25;;;;;;;16.43;6.30;;;8.80;99.90;;;;;;5089903;28;20047;-70
2023/05/20 03:30:51;;;;;;;15.20;6.67;;;8.80;99.90;;;;;;5089821;28;20602;-70
2023/05/20 03:33:16;;;;;;;10.83;6.00;;;8.80;99.90;;;;;;5089945;28;20039;-70
2023/05/20 03:35:42;;;;;;;12.83;5.90;;;8.80;99.90;;;;;;5070501;28;20043;-70
2023/05/20 03:38:08;;;;;;;13.47;6.20;;;8.80;99.90;;;;;;5096225;28;20035;-70
2023/05/20 03:40:33;;;;;;;15.30;5.97;;;8.80;99.90;;;;;;5089943;28;20441;-70
2023/05/20 03:42:59;;;;;;;11.67;6.03;;;8.80;99.90;;;;;;5073612;28;20090;-70
2023/05/20 03:45:25;;;;;;;11.40;6.43;;;8.80;99.90;;;;;;5067999;28;20044;-70
2023/05/20 03:47:51;;;;;;;13.07;6.33;;;8.80;99.90;;;;;;5070407;28;20089;-70
2023/05/20 03:50:16;;;;;;;11.03;5.90;;;8.80;99.90;;;;;;5092970;28;20055;-70
2023/05/20 03:52:42;;;;;;;12.73;6.50;;;8.80;99.90;;;;;;5094022;28;20116;-70
2023/05/20 03:55:09;;;;;;;9.32;5.53;;;8.80;99.90;;;;;;5094452;28;20036;-70
2023/05/20 03:57:35;;;;;;;14.35;5.15;;;8.80;99.90;;;;;;5094148;28;20035;-71
2023/05/20 04:00:04;;;;;;;10.30;5.35;;;8.80;99.90;;;;;;5077380;28;20040;-71
2023/05/20 04:02:30;;;;;;;13.18;5.50;;;8.80;99.90;;;;;;5094206;28;20132;-71
2023/05/20 04:04:56;;;;;;;10.00;5.27;;;8.80;99.90;;;;;;5094237;28;20051;-71
2023/05/20 04:07:22;;;;;;;9.85;4.65;;;8.90;99.90;;;;;;5094969;28;20408;-71
2023/05/20 04:09:48;;;;;;;9.13;4.75;;;8.90;99.90;;;;;;5075388;28;20130;-71
2023/05/20 04:12:14;;;;;;;9.20;4.60;;;9.00;99.90;;;;;;5077514;28;20474;-71
2023/05/20 04:14:41;;;;;;;12.13;4.93;;;9.10;99.90;;;;;;5077453;28;20035;-71
2023/05/20 04:17:06;;;;;;;9.10;4.30;;;9.20;99.90;;;;;;5077104;28;20125;-71
2023/05/20 04:19:33;;;;;;;7.87;4.20;;;9.30;99.90;;;;;;5094121;28;20039;-71
2023/05/20 04:21:59;;;;;;;11.18;4.00;;;9.40;99.90;;;;;;5098645;28;20035;-71
2023/05/20 04:24:26;;;;;;;6.25;3.88;;;9.50;99.90;;;;;;5106595;28;20075;-71
2023/05/20 04:26:52;;;;;;;7.93;3.80;;;9.50;99.90;;;;;;5093870;28;20123;-71
2023/05/20 04:29:18;;;;;;;9.18;3.70;;;9.60;99.90;;;;;;5093556;28;20046;-71
2023/05/20 04:31:45;;;;;;;9.13;3.25;;;9.70;99.90;;;;;;5094068;28;20161;-71
2023/05/20 04:34:12;;;;;;;6.55;3.17;;;9.70;99.90;;;;;;5093497;28;20046;-71
2023/05/20 04:36:38;;;;;;;6.55;3.10;;;9.80;99.90;;;;;;5079551;28;20055;-71
2023/05/20 04:39:04;;;;;;;6.35;2.72;;;9.90;99.90;;;;;;5091867;28;20975;-71
2023/05/20 04:41:30;;;;;;;8.37;3.53;;;10.10;99.90;;;;;;5092849;28;20399;-71
2023/05/20 04:44:00;;;;;;;6.35;2.95;;;10.20;99.90;;;;;;5096917;27;20047;-71
2023/05/20 04:46:26;;;;;;;7.07;2.88;;;10.30;99.90;;;;;;5093518;28;20649;-71
2023/05/20 04:48:52;;;;;;;7.50;2.60;;;10.40;99.90;;;;;;5092169;28;20114;-71
2023/05/20 04:51:18;;;;;;;6.95;2.80;;;10.40;99.90;;;;;;5093319;28;20323;-71
2023/05/20 04:53:44;;;;;;;6.33;3.00;;;10.60;99.90;;;;;;5076658;28;20097;-71
2023/05/20 04:56:10;;;;;;;5.40;2.40;;;10.80;99.90;;;;;;5076533;28;20322;-71
2023/05/20 04:58:36;;;;;;;4.70;2.63;;;10.90;99.90;;;;;;5076291;28;20500;-71
2023/05/20 05:01:02;;;;;;;4.17;2.30;;;10.90;99.90;;;;;;5092771;28;20047;-71
2023/05/20 05:03:28;;;;;;;6.33;2.27;;;11.00;99.90;;;;;;5093031;28;20379;-71
2023/05/20 05:05:57;;;;;;;5.22;2.67;;;11.10;99.90;;;;;;5076499;28;20039;-71
2023/05/20 05:08:25;;;;;;;5.22;2.40;;;11.20;99.90;;;;;;5089197;28;20043;-71
2023/05/20 05:10:51;;;;;;;6.20;2.47;;;11.20;99.90;;;;;;5093170;28;20086;-71
2023/05/20 05:13:17;;;;;;;4.80;2.30;;;11.10;99.90;;;;;;5093117;28;20051;-71
2023/05/20 05:15:43;;;;;;;7.97;2.37;;;11.00;99.90;;;;;;5093332;28;20044;-71
2023/05/20 05:18:08;;;;;;;5.03;2.47;;;10.80;99.90;;;;;;5092677;28;20774;-71
2023/05/20 05:20:34;;;;;;;3.70;2.40;;;10.70;99.90;;;;;;5076170;28;20491;-71
2023/05/20 05:23:00;;;;;;;5.10;2.20;;;10.60;99.90;;;;;;5101918;28;20339;-71
2023/05/20 05:25:26;;;;;;;4.33;2.40;;;10.50;99.90;;;;;;5075927;28;20050;-71
2023/05/20 05:27:54;;;;;;;6.30;2.13;;;10.50;99.90;;;;;;5092681;28;20040;-71
2023/05/20 05:30:20;;;;;;;6.00;2.55;;;10.50;99.90;;;;;;5092509;28;20498;-71
2023/05/20 05:32:46;;;;;;;6.45;2.05;;;10.50;99.90;;;;;;5093290;28;20511;-71
2023/05/20 05:35:12;;;;;;;6.57;2.10;;;10.50;99.90;;;;;;5092790;28;20085;-71
2023/05/20 05:37:38;;;;;;;6.30;2.40;;;10.60;99.90;;;;;;5092523;28;20040;-71
2023/05/20 05:40:04;;;;;;;6.03;2.10;;;10.60;99.90;;;;;;5072935;28;20042;-71
2023/05/20 05:42:30;;;;;;;5.15;1.90;;;10.70;99.90;;;;;;5071950;28;20042;-71
2023/05/20 05:44:55;;;;;;;6.40;2.40;;;10.80;99.90;;;;;;5092320;28;20458;-71
2023/05/20 05:47:21;;;;;;;6.60;2.57;;;10.90;99.90;;;;;;5075822;28;20043;-71
2023/05/20 05:49:47;;;;;;;3.07;1.90;;;11.10;99.90;;;;;;5092352;28;20133;-71
2023/05/20 05:52:13;;;;;;;5.80;2.20;;;11.20;99.90;;;;;;5093679;28;20533;-71
2023/05/20 05:54:38;;;;;;;3.37;1.80;;;11.50;99.90;;;;;;5086228;28;20032;-71
2023/05/20 05:57:04;;;;;;;3.60;2.03;;;11.70;99.90;;;;;;5092269;28;20491;-71
2023/05/20 05:59:30;;;;;;;3.53;1.80;;;12.00;99.30;;;;;;5091723;28;20114;-71
2023/05/20 06:01:56;;;;;;;4.30;1.90;;;12.20;98.00;;;;;;5075483;28;20675;-71
2023/05/20 06:04:22;;;;;;;3.53;1.60;;;12.40;96.50;;;;;;5090587;28;20499;-71
2023/05/20 06:06:48;;;;;;;4.40;1.80;;;12.70;95.30;;;;;;5075496;28;20104;-71
2023/05/20 06:09:14;;;;;;;2.58;1.60;;;12.80;94.20;;;;;;5075117;28;20040;-71
2023/05/20 06:11:41;;;;;;;4.07;1.63;;;12.90;93.40;;;;;;5075321;28;20035;-71
2023/05/20 06:14:06;;;;;;;8.83;2.20;;;12.90;93.40;;;;;;5090086;28;20054;-71
2023/05/20 06:16:32;;;;;;;2.17;1.47;;;13.00;93.30;;;;;;5074488;28;20302;-71
2023/05/20 06:18:58;;;;;;;4.03;1.20;;;13.20;93.50;;;;;;5074602;28;20380;-71
2023/05/20 06:21:23;;;;;;;5.30;2.00;;;13.50;92.30;;;;;;5089738;28;20043;-71
2023/05/20 06:23:49;;;;;;;3.97;1.80;;;13.80;90.70;;;;;;5074545;28;20039;-71
2023/05/20 06:26:15;;;;;;;2.70;1.13;;;14.20;87.20;;;;;;5091976;28;20337;-71
2023/05/20 06:28:41;;;;;;;2.70;1.60;;;14.80;86.20;;;;;;5091546;27;20501;-71
2023/05/20 06:31:07;;;;;;;3.03;1.33;;;15.40;83.60;;;;;;5075073;28;20061;-71
2023/05/20 06:33:33;;;;;;;4.23;1.60;;;15.40;81.80;;;;;;5091862;28;20518;-71
2023/05/20 06:36:02;;;;;;;2.93;1.23;;;14.90;82.40;;;;;;5067883;28;20286;-71
2023/05/20 06:38:27;;;;;;;3.47;1.30;;;14.40;84.30;;;;;;5091241;28;20305;-71
2023/05/20 06:40:53;;;;;;;4.13;1.40;;;14.00;85.40;;;;;;5074639;28;20284;-71
2023/05/20 06:43:19;;;;;;;3.00;1.40;;;13.70;86.20;;;;;;5074320;28;20340;-71
2023/05/20 06:45:44;;;;;;;3.03;1.50;;;13.50;87.10;;;;;;5074533;28;20407;-71
2023/05/20 06:48:10;;;;;;;5.80;1.60;;;13.40;88.20;;;;;;5090724;28;20043;-72
2023/05/20 06:50:36;;;;;;;4.70;1.43;;;13.90;89.60;;;;;;5095550;27;20066;-72
2023/05/20 06:53:03;;;;;;;4.10;1.03;;;14.60;87.00;;;;;;5075355;28;20529;-72
2023/05/20 06:55:29;;;;;;;2.73;1.20;;;15.20;83.60;;;;;;5092408;28;20637;-72
2023/05/20 06:57:54;;;;;;;3.20;1.20;;;15.60;81.00;;;;;;5074865;28;20304;-73
2023/05/20 07:00:20;;;;;;;2.87;1.47;;;15.80;80.30;;;;;;5085125;28;20567;-73
2023/05/20 07:02:46;;;;;;;2.77;1.20;;;16.00;79.50;;;;;;5091808;28;20031;-72
2023/05/20 07:05:11;;;;;;;2.77;1.10;;;16.00;79.90;;;;;;5074694;28;20039;-73
2023/05/20 07:07:37;;;;;;;4.17;1.40;;;16.00;80.00;;;;;;5091242;28;20134;-72
2023/05/20 07:10:05;;;;;;;4.87;1.27;;;15.90;80.40;;;;;;5091869;28;20039;-72
2023/05/20 07:12:31;;;;;;;3.40;1.00;;;15.70;81.30;;;;;;5092561;28;20043;-73
2023/05/20 07:14:57;;;;;;;3.67;1.00;;;15.50;80.30;;;;;;5092280;28;20292;-72
2023/05/20 07:17:23;;;;;;;2.83;1.27;;;15.40;80.50;;;;;;5091201;28;20297;-72
2023/05/20 07:19:49;;;;;;;2.93;1.00;;;15.30;81.00;;;;;;5074885;28;20198;-72
2023/05/20 07:22:15;;;;;;;2.47;1.10;;;15.30;80.20;;;;;;5075894;28;20374;-72
2023/05/20 07:24:41;;;;;;;1.87;0.77;;;15.30;80.50;;;;;;5075664;28;20040;-72
2023/05/20 07:27:07;;;;;;;2.77;0.90;;;15.40;79.10;;;;;;5091993;28;20393;-73
2023/05/20 07:29:35;;;;;;;2.73;0.67;;;15.40;76.10;;;;;;5074718;28;20043;-73
2023/05/20 07:32:02;;;;;;;5.70;0.97;;;15.40;77.50;;;;;;5091542;28;20055;-72
2023/05/20 07:34:28;;;;;;;2.43;1.10;;;15.50;77.10;;;;;;5074917;28;20283;-71
2023/05/20 07:36:55;;;;;;;4.53;1.03;;;15.60;75.90;;;;;;5091231;28;20297;-72
2023/05/20 07:39:21;;;;;;;2.07;0.80;;;15.60;74.60;;;;;;5074819;28;20035;-72
2023/05/20 07:41:47;;;;;;;3.40;0.83;;;15.70;75.30;;;;;;5091616;28;20826;-72
2023/05/20 07:44:13;;;;;;;1.80;0.60;;;15.70;73.40;;;;;;5074590;28;20480;-72
2023/05/20 07:46:40;;;;;;;4.03;0.80;;;15.70;74.30;;;;;;5074747;28;20051;-74
2023/05/20 07:49:06;;;;;;;3.60;0.87;;;15.80;73.60;;;;;;5086020;28;20380;-72
2023/05/20 07:51:32;;;;;;;4.13;1.20;;;15.90;72.50;;;;;;5098246;28;20316;-72
2023/05/20 07:53:58;;;;;;;2.53;0.70;;;15.90;72.00;;;;;;5098442;28;20700;-72
2023/05/20 07:56:24;;;;;;;2.80;0.60;;;16.00;72.00;;;;;;5073220;28;20041;-72
2023/05/20 07:58:54;;;;;;;1.90;0.80;;;16.00;72.30;;;;;;5084267;28;20380;-72
2023/05/20 08:01:20;;;;;;;2.13;0.80;;;16.10;71.70;;;;;;5079121;28;20493;-72
2023/05/20 08:03:46;;;;;;;2.83;0.80;;;16.20;72.10;;;;;;5083925;28;20292;-72
2023/05/20 08:06:12;;;;;;;2.23;0.83;;;16.20;72.50;;;;;;5081457;28;20400;-71
2023/05/20 08:08:40;;;;;;;3.23;1.30;;;16.30;72.20;;;;;;5097642;28;20056;-72
2023/05/20 08:11:06;;;;;;;2.50;0.80;;;16.30;69.00;;;;;;5097668;28;20070;-73
2023/05/20 08:13:32;;;;;;;2.87;0.63;;;16.30;68.40;;;;;;5097731;28;20269;-72
2023/05/20 08:15:58;;;;;;;3.07;1.00;;;16.40;68.50;;;;;;5080600;28;20338;-73
2023/05/20 08:18:24;;;;;;;2.67;1.03;;;16.40;66.70;;;;;;5098940;28;20036;-72
2023/05/20 08:20:50;;;;;;;2.40;0.93;;;16.40;67.40;;;;;;5090568;28;20035;-72
2023/05/20 08:23:15;;;;;;;4.57;0.80;;;16.50;68.90;;;;;;5122065;28;20039;-72
2023/05/20 08:25:41;;;;;;;2.00;0.70;;;16.60;68.30;;;;;;5091468;28;20282;-72
2023/05/20 08:28:08;;;;;;;2.97;0.90;;;16.70;68.50;;;;;;5091281;28;20130;-72
2023/05/20 08:30:33;;;;;;;3.70;1.30;;;16.80;67.60;;;;;;5074816;28;20571;-73
2023/05/20 08:33:00;;;;;;;3.27;1.23;;;16.80;67.60;;;;;;5091008;28;20372;-73
2023/05/20 08:35:26;;;;;;;3.33;0.90;;;16.90;66.90;;;;;;5074901;28;20043;-72
2023/05/20 08:37:54;;;;;;;2.83;1.10;;;17.00;66.50;;;;;;5095550;28;20294;-73
2023/05/20 08:40:21;;;;;;;4.13;1.10;;;17.00;65.80;;;;;;5090363;27;20077;-73
2023/05/20 08:42:54;;;;;;;2.53;0.97;;;17.10;66.50;;;;;;5094881;28;20277;-72
2023/05/20 08:45:25;;;;;;;4.80;1.10;;;17.10;63.70;;;;;;5095209;28;20289;-72
2023/05/20 08:47:51;;;;;;;2.60;1.07;;;17.10;62.70;;;;;;5091592;28;20285;-72
2023/05/20 08:50:17;;;;;;;4.27;1.20;;;17.10;62.80;;;;;;5087558;27;20283;-72
2023/05/20 08:52:45;;;;;;;3.10;1.07;;;17.10;64.80;;;;;;5077286;28;20295;-72
2023/05/20 08:55:15;;;;;;;2.60;1.40;;;17.20;63.60;;;;;;5094936;28;20273;-72
2023/05/20 08:57:44;;;;;;;4.80;1.30;;;17.30;63.90;;;;;;5097274;27;20292;-72
2023/05/20 09:00:15;;;;;;;3.60;1.10;;;17.40;64.90;;;;;;5094194;28;20351;-72
2023/05/20 09:02:43;;;;;;;5.30;1.20;;;17.40;65.10;;;;;;5077639;27;20313;-71
2023/05/20 09:05:10;;;;;;;3.50;1.53;;;17.50;63.60;;;;;;5092267;28;20292;-71
2023/05/20 09:07:36;;;;;;;6.27;1.43;;;17.50;64.70;;;;;;5092965;28;20282;-71
2023/05/20 09:10:02;;;;;;;4.40;1.07;;;17.60;63.10;;;;;;5092976;28;20331;-71
2023/05/20 09:12:28;;;;;;;1.70;1.00;;;17.60;62.50;;;;;;5091437;28;20461;-71
2023/05/20 09:14:54;;;;;;;5.77;1.03;;;17.70;64.30;;;;;;5092944;28;20712;-71
2023/05/20 09:17:23;;;;;;;3.13;1.00;;;17.80;64.50;;;;;;5075934;28;20066;-71
2023/05/20 09:19:50;;;;;;;3.60;1.40;;;17.90;62.30;;;;;;5075887;28;20047;-71
2023/05/20 09:22:24;;;;;;;4.03;1.20;;;17.90;61.60;;;;;;5092705;28;20285;-71
2023/05/20 09:24:51;;;;;;;3.72;1.27;;;17.90;62.60;;;;;;5099834;27;20341;-71
2023/05/20 09:27:17;;;;;;;3.03;0.93;;;18.10;62.70;;;;;;5076082;28;20057;-71
2023/05/20 09:29:43;;;;;;;3.57;0.90;;;18.10;60.50;;;;;;5076006;28;20633;-71
2023/05/20 09:32:10;;;;;;;4.80;1.30;;;18.10;61.20;;;;;;5092709;28;20614;-70
2023/05/20 09:34:37;;;;;;;4.50;1.27;;;18.10;63.10;;;;;;5095014;27;20082;-71
2023/05/20 09:37:06;;;;;;;2.70;0.90;;;18.20;62.00;;;;;;5098752;28;20298;-71
2023/05/20 09:39:38;;;;;;;3.77;0.97;;;18.40;62.30;;;;;;5092973;28;20288;-71
2023/05/20 09:42:14;;;;;;;2.13;0.97;;;18.50;61.20;;;;;;5091906;28;20281;-71
2023/05/20 09:44:43;;;;;;;4.63;1.43;;;18.50;59.70;;;;;;5075696;28;20277;-71
2023/05/20 09:47:10;;;;;;;3.67;1.20;;;18.50;60.80;;;;;;5075691;28;20317;-71
2023/05/20 09:49:37;;;;;;;2.10;0.90;;;18.60;61.40;;;;;;5087426;27;20280;-71
2023/05/20 09:52:04;;;;;;;2.73;1.00;;;18.70;60.80;;;;;;5093320;28;20329;-71
2023/05/20 09:54:30;;;;;;;4.27;1.10;;;18.70;60.30;;;;;;5091987;28;20313;-71
2023/05/20 09:56:59;;;;;;;3.03;1.03;;;18.80;58.70;;;;;;5075541;28;20383;-71
2023/05/20 09:59:26;;;;;;;4.07;1.10;;;18.70;59.00;;;;;;5070047;28;20816;-73
2023/05/20 10:01:52;;;;;;;4.53;1.00;;;18.80;59.00;;;;;;5092221;28;20284;-70
2023/05/20 10:04:19;;;;;;;3.57;1.53;;;18.80;60.50;;;;;;5090776;28;20670;-71
2023/05/20 10:07:26;;;;;;;5.33;1.10;;;18.90;60.20;;;;;;5092652;28;20445;-71
2023/05/20 10:10:11;;;;;;;2.93;1.13;;;19.00;59.50;;;;;;5076791;28;20290;-71
2023/05/20 10:12:52;;;;;;;5.32;1.30;;;19.10;60.30;;;;;;5089892;28;20290;-72
2023/05/20 10:15:27;;;;;;;3.57;1.30;;;19.20;59.90;;;;;;5092605;28;20051;-71
2023/05/20 10:18:28;;;;;;;4.40;1.30;;;19.30;59.00;;;;;;5092632;28;20664;-73
2023/05/20 10:20:54;;;;;;;3.53;1.27;;;19.30;57.90;;;;;;5089317;28;20288;-73
2023/05/20 10:23:21;;;;;;;3.77;1.10;;;19.30;57.90;;;;;;5096586;28;20277;-72
2023/05/20 10:25:55;;;;;;;6.13;1.27;;;19.30;58.40;;;;;;5095211;28;20039;-74
2023/05/20 10:28:28;;;;;;;3.80;1.10;;;19.30;59.30;;;;;;5077346;28;20285;-72
2023/05/20 10:30:54;;;;;;;5.67;1.03;;;19.30;59.90;;;;;;5076462;28;20306;-72
2023/05/20 10:33:20;;;;;;;2.37;1.07;;;19.40;60.50;;;;;;5093802;28;20361;-73
2023/05/20 10:35:53;;;;;;;4.03;1.67;;;19.50;60.30;;;;;;5093813;28;20050;-72
2023/05/20 10:38:20;;;;;;;3.40;1.37;;;19.60;58.70;;;;;;5088015;28;20050;-72
2023/05/20 10:40:46;;;;;;;3.87;1.20;;;19.50;57.90;;;;;;5071352;28;20810;-72
2023/05/20 10:43:28;;;;;;;4.10;1.10;;;19.50;59.00;;;;;;5094055;28;20040;-73
2023/05/20 10:45:56;;;;;;;5.97;1.50;;;19.50;59.70;;;;;;5093530;28;20303;-73
2023/05/20 10:48:27;;;;;;;3.97;1.60;;;19.60;60.00;;;;;;5090669;28;20376;-72
2023/05/20 10:50:57;;;;;;;4.17;1.50;;;19.70;59.80;;;;;;5092521;28;20300;-73
2023/05/20 10:53:24;;;;;;;5.43;1.70;;;19.70;57.90;;;;;;5093958;28;20074;-73
2023/05/20 10:55:53;;;;;;;4.10;1.50;;;19.60;58.90;;;;;;5096845;28;20039;-72
2023/05/20 10:58:22;;;;;;;5.23;1.60;;;19.50;59.00;;;;;;5092262;28;20035;-72
2023/05/20 11:00:48;;;;;;;4.63;1.63;;;19.30;59.30;;;;;;5092355;28;20292;-72
2023/05/20 11:03:17;;;;;;;7.77;1.73;;;19.30;60.60;;;;;;5091677;28;20028;-72
2023/05/20 11:05:45;;;;;;;3.20;1.70;;;19.50;59.90;;;;;;5092671;27;20100;-72
2023/05/20 11:08:11;;;;;;;5.20;1.63;;;19.50;59.80;;;;;;5092283;28;20043;-72
2023/05/20 11:10:37;;;;;;;5.10;2.07;;;19.40;60.30;;;;;;5092226;28;20292;-71
2023/05/20 11:13:03;;;;;;;4.07;1.60;;;19.30;60.80;;;;;;5078706;27;20042;-72
2023/05/20 11:15:34;;;;;;;6.50;1.87;;;19.20;60.80;;;;;;5099155;28;20062;-71
2023/05/20 11:18:03;;;;;;;6.53;1.87;;;19.00;61.50;;;;;;5074723;28;20500;-72
2023/05/20 11:20:35;;;;;;;3.03;1.77;;;18.90;62.40;;;;;;5075099;28;20335;-72
2023/05/20 11:23:02;;;;;;;5.83;1.90;;;19.00;62.70;;;;;;5092554;28;20337;-72
2023/05/20 11:25:28;;;;;;;4.93;1.80;;;19.20;62.60;;;;;;5090988;28;20047;-72
2023/05/20 11:27:54;;;;;;;5.00;2.17;;;19.40;61.90;;;;;;5091224;28;20044;-71
2023/05/20 11:30:20;;;;;;;8.23;2.23;;;19.50;62.10;;;;;;5091575;28;20450;-72
2023/05/20 11:32:56;;;;;;;3.80;1.30;;;19.60;60.80;;;;;;5075315;28;20051;-72
2023/05/20 11:35:24;;;;;;;7.17;1.93;;;19.70;61.20;;;;;;5091561;28;20400;-73
2023/05/20 11:38:03;;;;;;;7.00;2.20;;;19.80;60.90;;;;;;5075372;28;20102;-73
2023/05/20 11:40:31;;;;;;;3.87;1.83;;;19.90;60.50;;;;;;5091268;28;20044;-72
2023/05/20 11:43:00;;;;;;;6.40;2.10;;;19.80;60.40;;;;;;5074964;28;20054;-73
2023/05/20 11:45:26;;;;;;;6.67;1.90;;;19.80;60.70;;;;;;5089705;28;20068;-72
2023/05/20 11:48:00;;;;;;;5.27;2.00;;;19.90;61.30;;;;;;5074365;28;20098;-72
2023/05/20 11:50:26;;;;;;;4.43;1.90;;;20.00;60.50;;;;;;5072787;28;20429;-72
2023/05/20 11:52:59;;;;;;;4.37;1.97;;;19.80;61.00;;;;;;5084938;28;20043;-72
2023/05/20 11:55:25;;;;;;;5.47;1.97;;;19.70;60.40;;;;;;5091868;28;20426;-72
2023/05/20 11:57:51;;;;;;;5.87;2.00;;;19.60;60.70;;;;;;5074793;28;20039;-72
2023/05/20 12:00:17;;;;;;;4.73;2.10;;;19.50;61.20;;;;;;5076120;28;20050;-73
2023/05/20 12:02:44;;;;;;;5.53;2.40;;;19.50;62.10;;;;;;5091531;28;20383;-72
2023/05/20 12:05:10;;;;;;;5.23;1.97;;;19.60;61.50;;;;;;5091476;28;20061;-72
2023/05/20 12:07:36;;;;;;;4.40;1.90;;;19.60;61.50;;;;;;5090819;28;20130;-72
2023/05/20 12:10:05;;;;;;;5.53;2.10;;;19.60;61.20;;;;;;5073848;28;20127;-72
2023/05/20 12:12:31;;;;;;;8.20;1.90;;;19.80;60.90;;;;;;5093488;28;20047;-72
2023/05/20 12:14:57;;;;;;;5.00;2.40;;;19.80;61.60;;;;;;5077442;28;20126;-72
2023/05/20 12:17:22;;;;;;;7.77;2.33;;;19.90;61.70;;;;;;5077788;28;20118;-72
2023/05/20 12:19:48;;;;;;;7.00;2.73;;;19.90;61.50;;;;;;5094836;28;20039;-72
2023/05/20 12:22:14;;;;;;;6.03;2.07;;;19.90;60.50;;;;;;5094927;28;20042;-72
2023/05/20 12:24:40;;;;;;;4.87;2.23;;;19.90;61.30;;;;;;5094251;28;20079;-72
2023/05/20 12:27:06;;;;;;;4.77;2.33;;;20.10;60.50;;;;;;5075920;28;20683;-72
2023/05/20 12:29:32;;;;;;;7.03;2.20;;;20.10;59.40;;;;;;5094406;28;20104;-69
2023/05/20 12:31:58;;;;;;;8.63;2.37;;;20.10;60.50;;;;;;5093985;28;20120;-71
2023/05/20 12:34:24;;;;;;;6.03;2.10;;;20.20;60.30;;;;;;5077183;28;20040;-72
2023/05/20 12:36:50;;;;;;;4.87;2.30;;;20.30;59.50;;;;;;5093495;28;20039;-72
2023/05/20 12:39:17;;;;;;;4.83;2.00;;;20.10;59.70;;;;;;5093868;28;20040;-72
2023/05/20 12:41:43;;;;;;;8.07;2.10;;;20.00;59.60;;;;;;5076912;28;20331;-72
2023/05/20 12:44:09;;;;;;;4.03;1.80;;;19.90;60.20;;;;;;5093964;28;20097;-72
2023/05/20 12:46:36;;;;;;;7.87;2.60;;;19.80;60.90;;;;;;5087053;28;20479;-72